Sunday, October 21, 2018, 1:56 AM EDT
Back to Local

KRME, Griffiss Airfield

Location: Rome, NY, United States Lat: 43.233
Local Time: 1:56 AM EDT ( 5:56 GMT) Lon: -75.4
Time Zone: US/Eastern Elev: 505 ft

Show me the last for .
Show Decoded

2018-10-21 00:53 METAR KRME 210453Z AUTO 35009G19KT 10SM CLR 05/M02 A2972 RMK AO2 SLP065
                 T00501017 401390050 =
2018-10-20 23:53 METAR KRME 210353Z AUTO 34009KT 10SM CLR 06/03 A2970 RMK AO2 SLP055 T00610033 =
2018-10-20 22:53 METAR KRME 210253Z AUTO 28010KT 10SM CLR 08/04 A2968 RMK AO2 SLP048 T00780039
                 53007 =
2018-10-20 21:53 METAR KRME 210153Z AUTO 32003KT 10SM BKN110 07/03 A2966 RMK AO2 SLP042 T00670033
                 =
2018-10-20 20:53 METAR KRME 210053Z 00000KT 10SM OVC120 07/04 A2965 RMK AO2 SLP041 T00670039 =
2018-10-20 19:53 METAR KRME 202353Z 00000KT 10SM OVC110 08/03 A2966 RMK AO2 SLP042 T00780028
                 10139 20078 51013 =
2018-10-20 18:53 METAR KRME 202253Z 32004KT 10SM BKN120 08/02 A2965 RMK AO2 SLP040 T00830022 =
2018-10-20 17:53 METAR KRME 202153Z 27006KT 10SM OVC110 11/02 A2963 RMK AO2 SLP031 T01060017 =
2018-10-20 16:53 METAR KRME 202053Z 29009KT 10SM CLR 11/02 A2962 RMK AO2 SLP028 T01060022 56006 =
2018-10-20 15:53 METAR KRME 201953Z 29011KT 10SM FEW049 12/03 A2962 RMK AO2 SLP028 T01170033 =
2018-10-20 14:53 METAR KRME 201853Z 29011KT 10SM FEW050 BKN070 12/03 A2962 RMK AO2 SLP031
                 T01220033 =
2018-10-20 13:53 METAR KRME 201753Z 28013G20KT 10SM SCT075 12/04 A2964 RMK AO2 SLP034 60004
                 T01220044 10133 20100 58008 =
2018-10-20 12:53 METAR KRME 201653Z 28009KT 10SM FEW048 BKN060 12/08 A2966 RMK AO2 RAB10E42
                 SLP042 P0004 T01170078 =
2018-10-20 11:53 METAR KRME 201553Z 29008KT 10SM FEW075 13/05 A2966 RMK AO2 SLP042 T01280050 =
2018-10-20 11:01 METAR KRME 201501Z 27011KT 10SM SCT028 BKN033 BKN070 12/07 A2966 RMK AO2
                 T01170067 =
2018-10-20 10:53 METAR KRME 201453Z 24012G18KT 10SM BKN028 BKN039 BKN070 12/07 A2966 RMK AO2
                 SLP044 60000 T01170067 50010 =
2018-10-20 10:31 METAR KRME 201431Z 28013KT 10SM SCT022 BKN028 OVC046 12/07 A2966 RMK AO2
                 T01170072 =
2018-10-20 09:53 METAR KRME 201353Z 26009G17KT 10SM FEW023 SCT028 BKN070 12/08 A2967 RMK AO2
                 SLP046 T01170078 =
2018-10-20 09:34 METAR KRME 201334Z 27011G18KT 10SM SCT025 OVC070 11/07 A2967 RMK AO2 T01110072 =
2018-10-20 08:53 METAR KRME 201253Z 25009KT 10SM BKN026 OVC037 11/07 A2967 RMK AO2 RAB10E18
                 SLP045 P0000 T01060067 =
2018-10-20 07:53 METAR KRME 201153Z 27012G24KT 10SM OVC034 11/06 A2963 RMK AO2 SLP033 60000
                 T01110061 10122 20111 53004 =
2018-10-20 06:53 METAR KRME 201053Z 24009KT 10SM OVC037 12/05 A2961 RMK AO2 SLP028 T01170050 =
2018-10-20 05:53 METAR KRME 200953Z AUTO 23006KT 10SM OVC043 12/04 A2961 RMK AO2 SLP027 T01170039
                 =
2018-10-20 04:53 METAR KRME 200853Z AUTO 21006KT 10SM OVC048 12/04 A2962 RMK AO2 SLP029 60000
                 T01170039 56024 =
2018-10-20 03:53 METAR KRME 200753Z AUTO VRB06KT 10SM OVC050 12/03 A2964 RMK AO2 SLP034 T01170033
                 =
2018-10-20 02:53 METAR KRME 200653Z AUTO 19005KT 10SM OVC060 11/03 A2966 RMK AO2 RAE13 SLP044
                 P0000 T01110033 =

Support USWX by starting your Amazon purchase here.